Time;durP1;ratioP1;P1;durP2;ratioP2;P2;SDS_P1;SDS_P2;PMS_P1;PMS_P2;Temp;Humidity;BMP_temperature;BMP_pressure;BME280_temperature;BME280_humidity;BME280_pressure;Samples;Min_cycle;Max_cycle;Signal;HPM_P1;HPM_P2
2024/04/04 00:01:00;;;;;;;3.55;0.57;;;9.80;99.90;;;;;;4972883;28;20492;-77
2024/04/04 00:03:27;;;;;;;2.55;0.45;;;9.80;99.90;;;;;;4970954;28;20099;-78
2024/04/04 00:05:53;;;;;;;2.67;1.10;;;9.80;99.90;;;;;;4957945;28;20037;-77
2024/04/04 00:08:19;;;;;;;3.65;0.75;;;9.90;99.90;;;;;;4969741;28;20442;-77
2024/04/04 00:10:52;;;;;;;4.30;0.50;;;9.80;99.90;;;;;;4957560;28;20038;-78
2024/04/04 00:13:17;;;;;;;4.35;0.40;;;9.80;99.90;;;;;;4972330;28;20118;-78
2024/04/04 00:15:43;;;;;;;1.50;0.40;;;9.80;99.90;;;;;;4974657;28;20466;-78
2024/04/04 00:18:08;;;;;;;3.03;0.40;;;9.80;99.90;;;;;;4973263;28;20061;-78
2024/04/04 00:20:41;;;;;;;6.93;0.85;;;9.80;99.90;;;;;;4958045;28;20042;-77
2024/04/04 00:23:06;;;;;;;2.92;0.82;;;9.70;99.90;;;;;;4989312;28;20058;-79
2024/04/04 00:25:32;;;;;;;4.47;0.50;;;9.70;99.90;;;;;;4973045;28;20033;-77
2024/04/04 00:27:58;;;;;;;5.05;0.80;;;9.70;99.90;;;;;;4970911;28;21760;-78
2024/04/04 00:30:23;;;;;;;5.53;1.00;;;9.60;99.90;;;;;;4971107;28;20032;-78
2024/04/04 00:32:49;;;;;;;4.47;0.65;;;9.60;99.90;;;;;;4971528;28;20031;-78
2024/04/04 00:35:15;;;;;;;3.55;0.77;;;9.60;99.90;;;;;;4956797;28;20798;-78
2024/04/04 00:37:44;;;;;;;1.88;0.80;;;9.60;99.90;;;;;;4975901;28;20037;-78
2024/04/04 00:40:10;;;;;;;7.20;0.82;;;9.60;99.90;;;;;;4974906;28;20034;-79
2024/04/04 00:42:35;;;;;;;7.68;1.05;;;9.60;99.90;;;;;;4969344;28;20030;-79
2024/04/04 00:45:01;;;;;;;2.45;0.73;;;9.50;99.90;;;;;;4985982;28;20042;-78
2024/04/04 00:47:27;;;;;;;8.95;0.90;;;9.30;99.90;;;;;;4976060;28;20125;-78
2024/04/04 00:49:52;;;;;;;3.08;0.82;;;9.40;99.90;;;;;;4975921;28;20034;-78
2024/04/04 00:52:18;;;;;;;1.77;0.80;;;9.40;99.90;;;;;;4992940;28;20042;-78
2024/04/04 00:54:44;;;;;;;7.78;1.67;;;9.30;99.90;;;;;;4971440;28;20093;-79
2024/04/04 00:57:09;;;;;;;5.75;1.05;;;9.30;99.90;;;;;;4958706;28;20394;-78
2024/04/04 00:59:36;;;;;;;4.90;0.70;;;9.30;99.90;;;;;;4979191;28;20118;-78
2024/04/04 01:02:02;;;;;;;3.33;0.93;;;9.20;99.90;;;;;;4972607;28;20038;-78
2024/04/04 01:04:27;;;;;;;3.50;0.82;;;9.20;99.90;;;;;;4971408;28;20096;-79
2024/04/04 01:06:53;;;;;;;4.78;0.50;;;9.20;99.90;;;;;;4987749;28;20113;-79
2024/04/04 01:09:18;;;;;;;4.20;0.85;;;9.20;99.90;;;;;;4977474;28;20034;-78
2024/04/04 01:11:44;;;;;;;6.10;1.00;;;9.20;99.90;;;;;;4973473;28;20366;-79
2024/04/04 01:14:09;;;;;;;3.40;0.68;;;9.20;99.90;;;;;;4988425;28;20385;-78
2024/04/04 01:16:35;;;;;;;6.82;0.98;;;9.20;99.90;;;;;;4973567;28;20438;-78
2024/04/04 01:19:00;;;;;;;5.03;1.73;;;9.20;99.90;;;;;;4989173;28;20034;-78
2024/04/04 01:21:26;;;;;;;5.63;1.13;;;9.10;99.90;;;;;;4991384;28;20030;-78
2024/04/04 01:23:52;;;;;;;7.13;1.00;;;9.20;99.90;;;;;;4986187;28;20027;-79
2024/04/04 01:26:17;;;;;;;3.28;0.60;;;9.20;99.90;;;;;;4958330;28;20023;-79
2024/04/04 01:28:44;;;;;;;5.10;0.77;;;9.20;99.90;;;;;;4971889;28;20412;-79
2024/04/04 01:31:10;;;;;;;1.98;0.75;;;9.30;99.90;;;;;;4976296;28;20110;-78
2024/04/04 01:33:36;;;;;;;7.15;1.20;;;9.20;99.90;;;;;;4975309;28;20113;-78
2024/04/04 01:36:01;;;;;;;5.72;1.20;;;9.20;99.90;;;;;;4974827;28;20034;-78
2024/04/04 01:38:27;;;;;;;2.03;0.60;;;9.20;99.90;;;;;;4987261;28;20034;-78
2024/04/04 01:40:53;;;;;;;5.38;1.02;;;9.30;99.90;;;;;;4954796;28;20031;-78
2024/04/04 01:43:19;;;;;;;3.92;0.85;;;9.20;99.90;;;;;;4973477;28;20038;-78
2024/04/04 01:45:45;;;;;;;7.32;1.20;;;9.30;99.90;;;;;;4969723;28;20465;-78
2024/04/04 01:48:10;;;;;;;5.20;1.02;;;9.30;99.90;;;;;;4984145;28;20416;-77
2024/04/04 01:50:36;;;;;;;7.63;0.93;;;9.30;99.90;;;;;;4974715;28;20409;-78
2024/04/04 01:53:01;;;;;;;3.20;0.88;;;9.20;99.90;;;;;;4954859;28;20042;-77
2024/04/04 01:55:29;;;;;;;4.75;0.80;;;9.20;99.90;;;;;;4984632;28;20070;-77
2024/04/04 01:57:57;;;;;;;4.65;0.75;;;9.30;99.90;;;;;;4972873;28;20119;-77
2024/04/04 02:00:23;;;;;;;5.20;0.93;;;9.30;99.90;;;;;;4970407;28;20443;-78
2024/04/04 02:02:49;;;;;;;1.90;0.70;;;9.30;99.90;;;;;;4957250;28;20034;-78
2024/04/04 02:05:15;;;;;;;5.50;0.85;;;9.30;99.90;;;;;;4971823;28;20391;-77
2024/04/04 02:07:40;;;;;;;2.10;0.77;;;9.30;99.90;;;;;;4976988;28;20039;-77
2024/04/04 02:10:06;;;;;;;4.25;1.25;;;9.40;99.90;;;;;;4988401;28;20551;-78
2024/04/04 02:12:31;;;;;;;5.38;0.73;;;9.40;99.90;;;;;;4988630;28;20030;-77
2024/04/04 02:14:57;;;;;;;7.40;1.38;;;9.50;99.90;;;;;;4986018;28;20105;-78
2024/04/04 02:17:25;;;;;;;4.80;0.50;;;9.50;99.90;;;;;;4962029;28;20396;-77
2024/04/04 02:19:51;;;;;;;8.52;0.85;;;9.50;99.90;;;;;;4989013;28;20436;-78
2024/04/04 02:22:16;;;;;;;1.67;0.93;;;9.40;99.90;;;;;;4988007;28;20026;-77
2024/04/04 02:24:42;;;;;;;2.55;0.82;;;9.50;99.90;;;;;;4970107;28;20081;-77
2024/04/04 02:27:08;;;;;;;1.33;0.60;;;9.60;99.90;;;;;;4965437;28;20385;-77
2024/04/04 02:29:34;;;;;;;9.20;1.38;;;9.60;99.90;;;;;;4967653;28;20045;-78
2024/04/04 02:32:00;;;;;;;7.18;0.68;;;9.60;99.90;;;;;;4971189;28;20035;-78
2024/04/04 02:34:25;;;;;;;2.40;0.73;;;9.60;99.90;;;;;;4971718;28;20068;-77
2024/04/04 02:36:51;;;;;;;4.15;0.90;;;9.60;99.90;;;;;;4965576;28;20026;-78
2024/04/04 02:39:17;;;;;;;4.47;0.88;;;9.60;99.90;;;;;;4973604;28;20058;-78
2024/04/04 02:41:43;;;;;;;2.08;0.90;;;9.60;99.90;;;;;;4955638;28;20030;-77
2024/04/04 02:44:09;;;;;;;4.38;0.95;;;9.60;99.90;;;;;;4989555;28;20396;-78
2024/04/04 02:46:35;;;;;;;3.42;0.75;;;9.70;99.90;;;;;;4968684;28;20026;-78
2024/04/04 02:49:01;;;;;;;4.80;0.88;;;9.80;99.90;;;;;;4965924;28;20038;-77
2024/04/04 02:51:28;;;;;;;4.20;1.23;;;9.70;99.90;;;;;;4975632;28;20659;-78
2024/04/04 02:53:53;;;;;;;8.95;1.27;;;9.70;99.90;;;;;;4973415;28;20505;-77
2024/04/04 02:56:19;;;;;;;7.18;0.95;;;9.70;99.90;;;;;;4988664;28;20122;-77
2024/04/04 02:58:45;;;;;;;4.07;0.75;;;9.70;99.90;;;;;;4985208;28;20022;-78
2024/04/04 03:01:11;;;;;;;1.33;0.75;;;9.80;99.90;;;;;;4986566;28;20540;-78
2024/04/04 03:03:37;;;;;;;3.75;1.02;;;9.80;99.90;;;;;;4980169;28;20065;-78
2024/04/04 03:06:04;;;;;;;6.25;0.63;;;9.80;99.90;;;;;;4985663;28;20030;-77
2024/04/04 03:08:29;;;;;;;5.53;0.68;;;9.90;99.90;;;;;;4971349;28;20038;-78
2024/04/04 03:10:55;;;;;;;3.78;1.27;;;9.80;99.90;;;;;;4974933;28;20513;-77
2024/04/04 03:13:20;;;;;;;1.85;0.63;;;9.80;99.90;;;;;;4970318;28;20043;-77
2024/04/04 03:15:56;;;;;;;1.40;0.65;;;9.80;99.90;;;;;;4988153;28;20113;-78
2024/04/04 03:18:21;;;;;;;1.33;0.95;;;9.90;99.90;;;;;;4965395;28;20480;-77
2024/04/04 03:20:47;;;;;;;3.63;0.90;;;9.80;99.90;;;;;;4967933;28;20038;-77
2024/04/04 03:23:12;;;;;;;4.03;0.90;;;9.90;99.90;;;;;;4973670;28;20034;-78
2024/04/04 03:25:38;;;;;;;3.00;0.88;;;9.80;99.90;;;;;;4957802;28;20038;-77
2024/04/04 03:28:04;;;;;;;1.30;0.65;;;9.80;99.90;;;;;;4972768;28;20038;-78
2024/04/04 03:30:29;;;;;;;6.63;0.80;;;9.80;99.90;;;;;;4957343;28;20038;-77
2024/04/04 03:32:55;;;;;;;3.65;0.80;;;9.80;99.90;;;;;;4955981;28;20030;-77
2024/04/04 03:35:20;;;;;;;5.30;0.90;;;9.80;99.90;;;;;;4988519;28;20033;-77
2024/04/04 03:37:46;;;;;;;3.05;1.02;;;9.80;99.90;;;;;;4957484;28;20080;-77
2024/04/04 03:40:11;;;;;;;2.10;0.80;;;9.70;99.90;;;;;;4986786;28;20035;-77
2024/04/04 03:42:37;;;;;;;2.55;0.70;;;9.70;99.90;;;;;;4971064;28;20511;-77
2024/04/04 03:45:03;;;;;;;4.72;0.93;;;9.70;99.90;;;;;;4958217;28;20037;-77
2024/04/04 03:47:28;;;;;;;4.03;0.90;;;9.70;99.90;;;;;;4987851;28;20034;-77
2024/04/04 03:49:54;;;;;;;7.03;1.40;;;9.70;99.90;;;;;;4957250;28;20591;-77
2024/04/04 03:52:20;;;;;;;4.57;0.95;;;9.70;99.90;;;;;;4985127;28;20539;-77
2024/04/04 03:54:45;;;;;;;4.40;0.90;;;9.80;99.90;;;;;;4981565;28;20030;-78
2024/04/04 03:57:11;;;;;;;2.67;0.90;;;9.70;99.90;;;;;;4988794;28;20403;-77
2024/04/04 03:59:36;;;;;;;5.00;1.40;;;9.70;99.90;;;;;;4986853;28;20161;-77
2024/04/04 04:02:03;;;;;;;2.35;1.10;;;9.70;99.90;;;;;;4987166;28;20333;-77
2024/04/04 04:04:29;;;;;;;1.65;1.10;;;9.70;99.90;;;;;;4954136;28;20041;-77
2024/04/04 04:06:54;;;;;;;4.25;1.20;;;9.70;99.90;;;;;;4986503;28;20628;-77
2024/04/04 04:09:20;;;;;;;1.35;0.77;;;9.70;99.90;;;;;;4986772;28;20543;-77
2024/04/04 04:11:45;;;;;;;3.67;1.30;;;9.70;99.90;;;;;;4972094;28;20060;-77
2024/04/04 04:14:11;;;;;;;2.58;1.42;;;9.70;99.90;;;;;;4970740;28;20030;-77
2024/04/04 04:16:36;;;;;;;3.25;1.35;;;9.70;99.90;;;;;;4986216;28;20376;-77
2024/04/04 04:19:02;;;;;;;4.68;1.25;;;9.70;99.90;;;;;;4953131;28;20031;-78
2024/04/04 04:21:27;;;;;;;4.68;2.17;;;9.70;99.90;;;;;;4971644;28;20155;-77
2024/04/04 04:23:56;;;;;;;3.88;1.02;;;9.80;99.90;;;;;;4987080;28;20038;-77
2024/04/04 04:26:21;;;;;;;2.63;0.90;;;9.80;99.90;;;;;;4988003;28;20031;-77
2024/04/04 04:28:47;;;;;;;7.95;1.35;;;9.80;99.90;;;;;;4972030;28;20495;-77
2024/04/04 04:31:23;;;;;;;2.75;1.10;;;9.80;99.90;;;;;;4988032;28;20778;-77
2024/04/04 04:33:48;;;;;;;6.65;1.10;;;9.80;99.90;;;;;;4987435;28;20059;-78
2024/04/04 04:36:14;;;;;;;4.07;1.40;;;9.80;99.90;;;;;;4986787;28;20113;-77
2024/04/04 04:38:40;;;;;;;2.05;1.10;;;9.80;99.90;;;;;;4973098;28;20496;-77
2024/04/04 04:41:05;;;;;;;6.25;1.25;;;9.90;99.90;;;;;;4989213;28;20532;-77
2024/04/04 04:43:31;;;;;;;3.67;2.00;;;9.80;99.90;;;;;;4955154;28;20030;-77
2024/04/04 04:45:56;;;;;;;5.93;1.95;;;9.90;99.90;;;;;;4970916;28;20026;-78
2024/04/04 04:48:22;;;;;;;8.15;1.50;;;9.90;99.90;;;;;;4972796;28;20404;-77
2024/04/04 04:50:47;;;;;;;2.33;1.17;;;9.90;99.90;;;;;;4986873;28;20159;-77
2024/04/04 04:53:13;;;;;;;1.60;0.98;;;9.90;99.90;;;;;;4959084;28;20045;-78
2024/04/04 04:55:39;;;;;;;1.85;0.90;;;9.90;99.90;;;;;;4955203;28;20134;-77
2024/04/04 04:58:04;;;;;;;4.07;1.00;;;9.90;99.90;;;;;;4959022;28;20042;-77
2024/04/04 05:00:30;;;;;;;4.35;1.40;;;10.00;99.90;;;;;;4958034;28;20022;-77
2024/04/04 05:02:56;;;;;;;2.08;0.77;;;10.00;99.90;;;;;;4991981;28;20121;-77
2024/04/04 05:05:21;;;;;;;4.90;1.10;;;10.00;99.90;;;;;;4976179;28;20034;-77
2024/04/04 05:07:47;;;;;;;4.35;1.35;;;10.10;99.90;;;;;;4986497;28;20037;-77
2024/04/04 05:10:13;;;;;;;4.32;1.40;;;10.10;99.90;;;;;;4969854;28;20053;-77
2024/04/04 05:12:38;;;;;;;1.90;0.68;;;10.10;99.90;;;;;;4958503;28;20041;-78
2024/04/04 05:15:05;;;;;;;2.08;0.93;;;10.10;99.90;;;;;;4959527;28;20126;-77
2024/04/04 05:17:31;;;;;;;1.02;0.52;;;10.20;99.90;;;;;;4977401;28;20559;-77
2024/04/04 05:19:57;;;;;;;6.03;1.27;;;10.20;99.90;;;;;;4975659;28;20564;-77
2024/04/04 05:22:22;;;;;;;1.42;0.80;;;10.20;99.90;;;;;;4992707;28;20195;-77
2024/04/04 05:24:48;;;;;;;6.15;1.05;;;10.20;99.90;;;;;;4970599;28;20130;-77
2024/04/04 05:27:14;;;;;;;2.72;0.85;;;10.30;99.90;;;;;;4992582;28;20109;-78
2024/04/04 05:29:40;;;;;;;3.88;0.68;;;10.30;99.90;;;;;;4978655;28;20337;-78
2024/04/04 05:32:06;;;;;;;2.38;0.98;;;10.30;99.90;;;;;;4990460;28;20089;-77
2024/04/04 05:34:32;;;;;;;6.00;1.00;;;10.30;99.90;;;;;;4988270;28;20126;-77
2024/04/04 05:36:58;;;;;;;1.52;0.63;;;10.40;99.90;;;;;;4973353;28;20022;-76
2024/04/04 05:39:23;;;;;;;2.58;0.70;;;10.40;99.90;;;;;;4972020;28;20038;-77
2024/04/04 05:41:51;;;;;;;5.00;0.88;;;10.40;99.90;;;;;;4970708;28;20030;-77
2024/04/04 05:44:17;;;;;;;1.85;0.75;;;10.40;99.90;;;;;;4975030;28;20031;-77
2024/04/04 05:46:42;;;;;;;0.98;0.73;;;10.50;99.90;;;;;;4971897;28;20546;-78
2024/04/04 05:49:08;;;;;;;3.30;0.90;;;10.50;99.90;;;;;;4989691;28;20079;-77
2024/04/04 05:51:34;;;;;;;3.92;0.82;;;10.50;99.90;;;;;;4990098;28;20446;-77
2024/04/04 05:53:59;;;;;;;0.77;0.50;;;10.50;99.90;;;;;;4986350;28;20392;-77
2024/04/04 05:56:25;;;;;;;2.33;0.70;;;10.50;99.90;;;;;;4972878;28;20046;-77
2024/04/04 05:58:50;;;;;;;2.25;0.60;;;10.60;99.90;;;;;;4977503;28;20446;-77
2024/04/04 06:01:16;;;;;;;4.25;0.70;;;10.50;99.90;;;;;;4990909;28;20494;-77
2024/04/04 06:03:42;;;;;;;2.13;0.95;;;10.60;99.90;;;;;;4992271;28;20126;-77
2024/04/04 06:06:08;;;;;;;1.17;0.70;;;10.60;99.90;;;;;;4973997;28;20038;-77
2024/04/04 06:08:34;;;;;;;1.80;0.70;;;10.60;99.90;;;;;;4976000;28;20065;-77
2024/04/04 06:11:00;;;;;;;1.05;0.65;;;10.60;99.90;;;;;;4965493;28;20143;-77
2024/04/04 06:13:25;;;;;;;2.20;0.50;;;10.70;99.90;;;;;;4983185;28;20432;-77
2024/04/04 06:16:01;;;;;;;1.10;0.45;;;10.70;99.90;;;;;;4988495;28;20062;-77
2024/04/04 06:18:27;;;;;;;3.08;0.60;;;10.70;99.90;;;;;;4968317;28;20030;-77
2024/04/04 06:20:53;;;;;;;4.32;0.80;;;10.70;99.90;;;;;;4985915;28;20041;-77
2024/04/04 06:23:18;;;;;;;2.72;0.88;;;10.70;99.90;;;;;;4976124;28;20476;-78
2024/04/04 06:25:44;;;;;;;3.40;0.63;;;10.80;99.90;;;;;;4994209;28;20030;-76
2024/04/04 06:28:09;;;;;;;0.60;0.40;;;10.80;99.90;;;;;;4972076;28;20571;-76
2024/04/04 06:30:35;;;;;;;2.08;0.47;;;10.80;99.90;;;;;;4970996;28;20453;-75
2024/04/04 06:33:01;;;;;;;4.90;0.90;;;10.80;99.90;;;;;;4986536;28;20030;-76
2024/04/04 06:35:26;;;;;;;4.00;0.90;;;10.90;99.90;;;;;;4991338;28;20053;-76
2024/04/04 06:37:52;;;;;;;3.35;1.23;;;10.90;99.90;;;;;;4988034;28;20068;-76
2024/04/04 06:40:18;;;;;;;7.35;1.25;;;10.90;99.90;;;;;;4956482;28;20400;-76
2024/04/04 06:42:43;;;;;;;2.75;0.73;;;10.90;99.90;;;;;;4957912;28;20137;-76
2024/04/04 06:45:09;;;;;;;7.78;1.20;;;10.90;99.90;;;;;;4972074;28;20046;-76
2024/04/04 06:47:41;;;;;;;4.78;0.93;;;10.90;99.90;;;;;;4973103;28;20115;-76
2024/04/04 06:50:06;;;;;;;4.72;1.08;;;10.90;99.90;;;;;;4965876;28;24797;-76
2024/04/04 06:52:32;;;;;;;2.90;0.85;;;11.00;99.90;;;;;;4985969;28;20362;-77
2024/04/04 06:54:58;;;;;;;6.30;1.35;;;11.00;99.90;;;;;;4949060;28;20590;-76
2024/04/04 06:57:25;;;;;;;3.42;0.65;;;11.00;99.90;;;;;;4988077;28;20791;-76
2024/04/04 06:59:50;;;;;;;3.40;0.98;;;11.00;99.90;;;;;;4994524;28;20041;-77
2024/04/04 07:02:16;;;;;;;6.10;1.20;;;10.90;99.90;;;;;;4961176;28;20504;-77
2024/04/04 07:04:41;;;;;;;2.28;0.88;;;11.10;99.90;;;;;;4986901;28;20042;-77
2024/04/04 07:07:07;;;;;;;2.80;0.82;;;11.10;99.90;;;;;;4980376;28;20042;-77
2024/04/04 07:09:32;;;;;;;3.97;1.10;;;11.10;99.90;;;;;;4969304;28;20034;-77
2024/04/04 07:11:58;;;;;;;5.22;1.33;;;11.10;99.90;;;;;;4973597;28;20026;-77
2024/04/04 07:14:23;;;;;;;4.15;1.15;;;11.10;99.90;;;;;;4973140;28;20031;-77
2024/04/04 07:16:49;;;;;;;7.63;1.42;;;11.20;99.90;;;;;;4992694;28;20025;-77
2024/04/04 07:19:15;;;;;;;5.38;1.17;;;11.20;99.90;;;;;;4989322;28;20023;-77
2024/04/04 07:21:40;;;;;;;3.20;1.25;;;11.20;99.90;;;;;;4984054;28;20121;-77
2024/04/04 07:24:06;;;;;;;1.92;0.93;;;11.30;99.90;;;;;;4974421;28;20539;-77
2024/04/04 07:26:31;;;;;;;3.15;0.88;;;11.30;99.90;;;;;;4969534;28;20038;-77
2024/04/04 07:28:57;;;;;;;2.75;1.05;;;11.30;99.90;;;;;;4972907;28;20065;-77
2024/04/04 07:31:22;;;;;;;4.60;1.17;;;11.50;99.90;;;;;;4954616;28;20431;-77
2024/04/04 07:33:48;;;;;;;3.85;1.02;;;11.50;99.90;;;;;;4997083;28;20440;-77
2024/04/04 07:36:16;;;;;;;3.50;1.05;;;11.50;99.90;;;;;;4995071;28;20608;-77
2024/04/04 07:38:45;;;;;;;1.70;0.82;;;11.40;99.90;;;;;;4990202;28;20377;-77
2024/04/04 07:41:12;;;;;;;3.97;1.05;;;11.50;99.90;;;;;;4965088;28;20034;-77
2024/04/04 07:43:38;;;;;;;3.03;0.90;;;11.50;99.90;;;;;;4971987;28;20399;-77
2024/04/04 07:46:06;;;;;;;2.08;1.00;;;11.50;99.90;;;;;;4975655;28;20034;-77
2024/04/04 07:48:32;;;;;;;0.50;0.35;;;11.50;99.90;;;;;;4988739;28;20039;-77
2024/04/04 07:50:57;;;;;;;2.45;1.10;;;11.60;99.90;;;;;;4959862;28;20496;-77
2024/04/04 07:53:23;;;;;;;3.28;0.90;;;11.60;99.90;;;;;;4972227;28;20049;-77
2024/04/04 07:55:49;;;;;;;4.30;1.23;;;11.60;99.90;;;;;;4963882;28;20038;-77
2024/04/04 07:58:14;;;;;;;3.00;0.50;;;11.60;99.90;;;;;;4982462;28;20610;-77
2024/04/04 08:00:41;;;;;;;3.78;1.00;;;11.60;99.90;;;;;;4982463;28;20117;-77
2024/04/04 08:03:09;;;;;;;2.72;0.60;;;11.60;99.90;;;;;;4987416;28;20654;-76
2024/04/04 08:05:35;;;;;;;5.88;0.68;;;11.50;99.90;;;;;;4970342;28;20095;-77
2024/04/04 08:08:00;;;;;;;3.28;1.42;;;11.60;99.90;;;;;;4982387;28;20038;-77
2024/04/04 08:10:26;;;;;;;1.00;0.60;;;11.50;99.90;;;;;;4969200;28;20087;-77
2024/04/04 08:12:51;;;;;;;2.45;0.60;;;11.60;99.90;;;;;;4968493;28;20058;-77
2024/04/04 08:15:17;;;;;;;8.85;1.20;;;11.60;99.90;;;;;;4971453;28;20095;-76
2024/04/04 08:17:42;;;;;;;1.00;0.73;;;11.50;99.90;;;;;;4969177;28;20030;-77
2024/04/04 08:20:09;;;;;;;0.73;0.45;;;11.50;99.90;;;;;;4967410;28;20038;-77
2024/04/04 08:22:35;;;;;;;0.38;0.30;;;11.40;99.90;;;;;;4987334;28;20492;-77
2024/04/04 08:25:01;;;;;;;0.77;0.32;;;11.40;99.90;;;;;;4973530;28;20041;-76
2024/04/04 08:27:26;;;;;;;0.68;0.35;;;11.50;99.90;;;;;;4972777;28;20504;-76
2024/04/04 08:29:52;;;;;;;0.77;0.45;;;11.40;99.90;;;;;;4973242;28;20037;-76
2024/04/04 08:32:21;;;;;;;0.85;0.40;;;11.40;99.90;;;;;;4975340;28;20290;-76
2024/04/04 08:34:47;;;;;;;1.48;0.40;;;11.40;99.90;;;;;;4976196;28;20117;-76
2024/04/04 08:37:12;;;;;;;1.20;0.52;;;11.40;99.90;;;;;;4974287;28;20113;-76
2024/04/04 08:39:38;;;;;;;0.50;0.40;;;11.50;99.90;;;;;;4972549;28;20034;-76
2024/04/04 08:42:04;;;;;;;2.33;0.45;;;11.50;99.90;;;;;;4978246;28;20045;-76
2024/04/04 08:44:31;;;;;;;2.72;0.47;;;11.50;99.90;;;;;;4961810;28;20380;-76
2024/04/04 08:46:57;;;;;;;0.55;0.20;;;11.50;99.90;;;;;;4957339;28;20492;-76
2024/04/04 08:49:26;;;;;;;2.92;0.50;;;11.50;99.90;;;;;;4989308;28;20035;-76
2024/04/04 08:51:51;;;;;;;2.08;0.52;;;11.50;99.90;;;;;;4969871;28;20055;-76
2024/04/04 08:54:20;;;;;;;0.45;0.40;;;11.50;99.90;;;;;;4973311;28;20509;-79
2024/04/04 08:56:46;;;;;;;1.13;0.50;;;11.50;99.90;;;;;;4974809;28;20043;-76
2024/04/04 08:59:11;;;;;;;0.20;0.20;;;11.50;99.90;;;;;;4974723;28;20480;-77
2024/04/04 09:01:37;;;;;;;0.43;0.35;;;11.60;99.90;;;;;;4969644;28;20396;-77
2024/04/04 09:04:02;;;;;;;0.70;0.50;;;11.60;99.90;;;;;;4960016;28;20117;-77
2024/04/04 09:06:28;;;;;;;3.60;0.50;;;11.60;99.90;;;;;;4972620;28;20034;-77
2024/04/04 09:08:59;;;;;;;1.33;0.32;;;11.70;99.90;;;;;;4971251;28;20034;-77
2024/04/04 09:11:29;;;;;;;1.10;0.45;;;11.80;99.90;;;;;;4987007;28;20034;-77
2024/04/04 09:14:04;;;;;;;1.85;0.30;;;11.80;99.90;;;;;;4986046;28;20080;-77
2024/04/04 09:16:30;;;;;;;2.27;0.57;;;11.90;99.90;;;;;;4972539;28;20148;-77
2024/04/04 09:19:16;;;;;;;1.13;0.30;;;12.00;99.90;;;;;;4960454;28;20054;-77
2024/04/04 09:21:44;;;;;;;1.98;0.80;;;12.20;99.90;;;;;;4972902;28;20072;-77
2024/04/04 09:24:10;;;;;;;1.40;0.32;;;12.30;99.90;;;;;;4974779;28;20415;-77
2024/04/04 09:26:36;;;;;;;0.30;0.10;;;12.40;99.90;;;;;;4971105;28;20436;-76
2024/04/04 09:29:03;;;;;;;0.70;0.20;;;12.50;99.90;;;;;;4958340;28;20038;-76
2024/04/04 09:31:29;;;;;;;0.70;0.35;;;12.50;99.90;;;;;;4971766;28;20416;-77
2024/04/04 09:33:56;;;;;;;0.30;0.20;;;12.60;99.90;;;;;;4971508;28;20031;-77
2024/04/04 09:36:24;;;;;;;1.17;0.30;;;12.60;99.90;;;;;;4986073;28;20132;-77
2024/04/04 09:38:51;;;;;;;1.70;0.40;;;12.80;99.90;;;;;;4973357;28;20469;-76
2024/04/04 09:41:17;;;;;;;1.45;0.45;;;12.60;99.90;;;;;;4985757;28;20121;-77
2024/04/04 09:43:43;;;;;;;1.98;0.52;;;12.60;99.90;;;;;;4991253;28;20118;-77
2024/04/04 09:46:09;;;;;;;2.30;0.43;;;12.70;99.90;;;;;;4993349;28;20034;-77
2024/04/04 09:48:34;;;;;;;0.75;0.30;;;12.50;99.90;;;;;;4986560;28;20026;-77
2024/04/04 09:51:00;;;;;;;2.78;0.75;;;12.60;99.90;;;;;;4990004;28;20081;-77
2024/04/04 09:53:25;;;;;;;1.40;0.30;;;12.70;99.90;;;;;;4987368;28;20124;-77
2024/04/04 09:55:52;;;;;;;0.80;0.30;;;12.80;99.90;;;;;;4958634;28;20045;-77
2024/04/04 09:58:18;;;;;;;0.30;0.22;;;12.90;99.90;;;;;;4974453;28;20027;-77
2024/04/04 10:00:43;;;;;;;0.70;0.30;;;13.10;99.90;;;;;;4952633;28;20030;-77
2024/04/04 10:03:14;;;;;;;0.35;0.30;;;13.20;99.90;;;;;;4972342;28;20061;-77
2024/04/04 10:05:40;;;;;;;0.15;0.15;;;13.20;99.90;;;;;;4966581;28;20444;-77
2024/04/04 10:08:12;;;;;;;2.15;0.20;;;13.30;99.90;;;;;;4965046;28;20125;-77
2024/04/04 10:10:41;;;;;;;0.55;0.22;;;13.40;99.90;;;;;;4968990;28;20041;-77
2024/04/04 10:13:11;;;;;;;0.25;0.25;;;13.30;99.90;;;;;;4973046;28;20041;-77
2024/04/04 10:15:49;;;;;;;0.55;0.20;;;13.50;99.90;;;;;;4986685;28;20077;-77
2024/04/04 10:18:17;;;;;;;0.82;0.30;;;13.70;99.90;;;;;;4954822;28;20068;-77
2024/04/04 10:20:57;;;;;;;0.40;0.40;;;13.60;99.90;;;;;;4973899;28;20031;-77
2024/04/04 10:23:27;;;;;;;1.05;0.30;;;13.60;99.90;;;;;;4967841;28;20081;-76
2024/04/04 10:26:03;;;;;;;1.25;0.28;;;13.60;99.90;;;;;;5007520;28;20038;-76
2024/04/04 10:28:30;;;;;;;0.47;0.40;;;13.50;99.90;;;;;;4974192;28;20031;-76
2024/04/04 10:30:58;;;;;;;0.43;0.20;;;13.50;99.90;;;;;;4966646;28;20031;-77
2024/04/04 10:33:23;;;;;;;3.90;0.60;;;13.50;99.90;;;;;;4975770;28;20140;-77
2024/04/04 10:35:56;;;;;;;0.20;0.20;;;13.60;99.90;;;;;;4989815;28;20039;-77
2024/04/04 10:38:22;;;;;;;1.02;0.20;;;13.70;99.90;;;;;;4989010;28;20039;-77
2024/04/04 10:40:48;;;;;;;1.63;0.50;;;13.60;99.90;;;;;;4977927;28;20050;-76
2024/04/04 10:43:13;;;;;;;2.83;0.50;;;13.60;99.90;;;;;;4967147;28;22325;-75
2024/04/04 10:45:39;;;;;;;1.30;0.50;;;13.80;99.90;;;;;;4969753;28;20081;-77
2024/04/04 10:48:05;;;;;;;2.65;0.50;;;13.80;99.90;;;;;;4988800;28;20109;-76
2024/04/04 10:50:31;;;;;;;1.70;0.45;;;14.10;99.90;;;;;;4964263;28;20037;-76
2024/04/04 10:52:57;;;;;;;1.85;0.52;;;14.10;99.90;;;;;;4967941;28;20039;-77
2024/04/04 10:55:24;;;;;;;0.40;0.40;;;14.40;99.90;;;;;;4957711;28;20387;-77
2024/04/04 10:57:51;;;;;;;0.57;0.28;;;14.40;99.90;;;;;;4958277;28;20031;-77
2024/04/04 11:00:19;;;;;;;1.80;0.35;;;14.00;99.90;;;;;;4976262;28;20031;-77
2024/04/04 11:02:45;;;;;;;2.85;0.50;;;14.30;99.90;;;;;;4969029;28;20492;-77
2024/04/04 11:05:10;;;;;;;1.38;0.57;;;14.20;99.90;;;;;;4987734;28;20070;-76
2024/04/04 11:07:38;;;;;;;0.80;0.32;;;14.50;99.90;;;;;;4974104;28;20030;-76
2024/04/04 11:10:08;;;;;;;1.13;0.40;;;14.70;99.90;;;;;;4973850;28;20037;-76
2024/04/04 11:12:34;;;;;;;1.00;0.35;;;14.60;99.90;;;;;;4954290;28;20042;-77
2024/04/04 11:15:00;;;;;;;5.18;0.43;;;14.50;99.90;;;;;;4969211;28;20396;-77
2024/04/04 11:17:25;;;;;;;3.45;1.02;;;14.60;99.90;;;;;;4965394;28;20497;-77
2024/04/04 11:20:07;;;;;;;2.03;0.43;;;14.60;99.90;;;;;;4971101;28;20532;-77
2024/04/04 11:22:34;;;;;;;0.93;0.32;;;14.80;99.90;;;;;;4970267;28;20061;-77
2024/04/04 11:24:59;;;;;;;1.38;0.57;;;14.90;99.90;;;;;;5001806;28;20041;-77
2024/04/04 11:27:25;;;;;;;1.45;0.52;;;15.00;99.90;;;;;;4982474;28;20030;-76
2024/04/04 11:29:50;;;;;;;1.80;0.30;;;15.00;99.90;;;;;;4990226;28;20049;-77
2024/04/04 11:32:16;;;;;;;2.05;0.60;;;14.90;99.90;;;;;;5007163;28;20037;-77
2024/04/04 11:34:42;;;;;;;0.93;0.57;;;15.00;99.90;;;;;;5009923;28;20038;-78
2024/04/04 11:37:07;;;;;;;2.85;0.55;;;14.90;99.90;;;;;;4984771;28;20407;-77
2024/04/04 11:39:34;;;;;;;2.47;0.70;;;14.90;99.90;;;;;;4979988;28;20037;-77
2024/04/04 11:42:00;;;;;;;2.22;0.30;;;14.90;99.90;;;;;;4957715;28;20031;-78
2024/04/04 11:44:25;;;;;;;3.40;1.00;;;14.80;99.90;;;;;;4971300;28;20403;-78
2024/04/04 11:46:51;;;;;;;1.67;0.50;;;14.70;99.90;;;;;;4961099;28;20111;-77
2024/04/04 11:49:18;;;;;;;0.20;0.20;;;14.80;99.90;;;;;;4985522;28;20030;-77
2024/04/04 11:51:44;;;;;;;2.10;0.40;;;14.70;99.90;;;;;;4988953;28;20484;-78
2024/04/04 11:54:10;;;;;;;3.92;0.40;;;14.80;99.90;;;;;;4983856;28;20072;-77
2024/04/04 11:56:39;;;;;;;0.90;0.57;;;14.80;99.90;;;;;;4984265;28;20126;-77
2024/04/04 11:59:05;;;;;;;4.55;0.73;;;15.10;99.90;;;;;;4968138;28;20030;-76
2024/04/04 12:01:30;;;;;;;0.98;0.30;;;15.20;99.90;;;;;;4970103;28;20081;-77
2024/04/04 12:03:57;;;;;;;0.38;0.28;;;14.90;99.90;;;;;;4968760;28;20113;-77
2024/04/04 12:06:22;;;;;;;2.10;0.50;;;14.90;99.90;;;;;;4957774;28;20030;-77
2024/04/04 12:08:49;;;;;;;4.38;0.65;;;15.00;99.90;;;;;;4966255;28;20031;-77
2024/04/04 12:11:15;;;;;;;3.05;0.50;;;14.90;99.90;;;;;;4981599;28;20118;-77
2024/04/04 12:13:40;;;;;;;3.97;0.95;;;15.30;99.90;;;;;;4970916;28;20117;-77
2024/04/04 12:16:08;;;;;;;2.55;0.77;;;14.80;99.90;;;;;;5000091;28;20373;-77
2024/04/04 12:21:18;;;;;;;0.55;0.22;;;14.70;99.90;;;;;;4983592;28;20113;-77
2024/04/04 12:23:44;;;;;;;1.85;0.40;;;14.60;99.90;;;;;;4967218;28;20072;-77
2024/04/04 12:26:09;;;;;;;1.65;0.35;;;14.80;99.90;;;;;;4967571;28;20038;-77
2024/04/04 12:28:35;;;;;;;0.90;0.30;;;14.70;99.90;;;;;;4986478;28;20536;-77
2024/04/04 12:31:01;;;;;;;2.47;0.40;;;14.90;99.90;;;;;;4952095;28;20543;-77
2024/04/04 12:33:26;;;;;;;1.95;0.43;;;14.90;99.90;;;;;;4963783;28;20034;-77
2024/04/04 12:35:53;;;;;;;0.52;0.20;;;15.00;99.90;;;;;;4958122;28;20527;-77
2024/04/04 12:38:22;;;;;;;5.38;0.55;;;14.90;99.90;;;;;;4950788;28;20034;-77
2024/04/04 12:40:47;;;;;;;0.22;0.10;;;15.20;99.90;;;;;;4983754;28;20176;-77
2024/04/04 12:43:14;;;;;;;0.60;0.30;;;15.30;99.90;;;;;;4958283;28;20519;-77
2024/04/04 12:45:40;;;;;;;0.73;0.20;;;15.20;99.90;;;;;;4954377;28;20034;-77
2024/04/04 12:48:05;;;;;;;1.85;0.43;;;15.20;99.90;;;;;;4984693;28;20378;-77